sensor_id;sensor_type;location;lat;lon;timestamp;pressure;altitude;pressure_sealevel;temperature;humidity
35489;BME280;21602;55.670;37.578;2023-02-03T00:00:35;98414.69;;;0.32;88.11
35489;BME280;21602;55.670;37.578;2023-02-03T00:03:01;98408.63;;;0.31;88.25
35489;BME280;21602;55.670;37.578;2023-02-03T00:05:27;98422.38;;;0.33;88.26
35489;BME280;21602;55.670;37.578;2023-02-03T00:07:53;98424.03;;;0.34;88.54
35489;BME280;21602;55.670;37.578;2023-02-03T00:10:19;98414.56;;;0.40;88.56
35489;BME280;21602;55.670;37.578;2023-02-03T00:12:49;98419.63;;;0.41;88.01
35489;BME280;21602;55.670;37.578;2023-02-03T00:15:16;98413.94;;;0.38;88.08
35489;BME280;21602;55.670;37.578;2023-02-03T00:17:41;98418.38;;;0.37;88.22
35489;BME280;21602;55.670;37.578;2023-02-03T00:20:07;98418.81;;;0.41;87.94
35489;BME280;21602;55.670;37.578;2023-02-03T00:22:35;98415.19;;;0.42;88.11
35489;BME280;21602;55.670;37.578;2023-02-03T00:25:01;98409.34;;;0.46;87.92
35489;BME280;21602;55.670;37.578;2023-02-03T00:27:29;98418.47;;;0.50;87.65
35489;BME280;21602;55.670;37.578;2023-02-03T00:29:55;98412.63;;;0.48;87.67
35489;BME280;21602;55.670;37.578;2023-02-03T00:32:21;98419.81;;;0.40;87.55
35489;BME280;21602;55.670;37.578;2023-02-03T00:34:46;98407.47;;;0.34;88.01
35489;BME280;21602;55.670;37.578;2023-02-03T00:37:12;98409.69;;;0.37;88.54
35489;BME280;21602;55.670;37.578;2023-02-03T00:39:38;98414.13;;;0.36;88.04
35489;BME280;21602;55.670;37.578;2023-02-03T00:42:04;98411.25;;;0.31;88.20
35489;BME280;21602;55.670;37.578;2023-02-03T00:44:30;98421.16;;;0.29;88.39
35489;BME280;21602;55.670;37.578;2023-02-03T00:46:56;98412.66;;;0.27;88.54
35489;BME280;21602;55.670;37.578;2023-02-03T00:49:22;98413.41;;;0.21;88.75
35489;BME280;21602;55.670;37.578;2023-02-03T00:51:48;98411.78;;;0.20;88.78
35489;BME280;21602;55.670;37.578;2023-02-03T00:54:15;98414.41;;;0.20;89.15
35489;BME280;21602;55.670;37.578;2023-02-03T00:56:41;98420.53;;;0.27;89.16
35489;BME280;21602;55.670;37.578;2023-02-03T00:59:06;98416.16;;;0.34;89.01
35489;BME280;21602;55.670;37.578;2023-02-03T01:01:33;98413.94;;;0.38;88.96
35489;BME280;21602;55.670;37.578;2023-02-03T01:03:59;98414.75;;;0.38;88.79
35489;BME280;21602;55.670;37.578;2023-02-03T01:06:25;98417.56;;;0.37;88.71
35489;BME280;21602;55.670;37.578;2023-02-03T01:08:53;98414.94;;;0.37;88.76
35489;BME280;21602;55.670;37.578;2023-02-03T01:11:21;98412.13;;;0.38;89.01
35489;BME280;21602;55.670;37.578;2023-02-03T01:13:50;98414.19;;;0.43;89.02
35489;BME280;21602;55.670;37.578;2023-02-03T01:16:18;98419.44;;;0.43;88.73
35489;BME280;21602;55.670;37.578;2023-02-03T01:18:45;98406.06;;;0.38;88.74
35489;BME280;21602;55.670;37.578;2023-02-03T01:21:13;98406.81;;;0.32;88.58
35489;BME280;21602;55.670;37.578;2023-02-03T01:23:39;98407.16;;;0.22;89.08
35489;BME280;21602;55.670;37.578;2023-02-03T01:26:08;98397.03;;;0.19;89.19
35489;BME280;21602;55.670;37.578;2023-02-03T01:28:34;98410.41;;;0.24;89.34
35489;BME280;21602;55.670;37.578;2023-02-03T01:31:24;98400.50;;;0.19;89.09
35489;BME280;21602;55.670;37.578;2023-02-03T01:33:52;98404.66;;;0.14;89.62
35489;BME280;21602;55.670;37.578;2023-02-03T01:36:19;98405.50;;;0.14;89.98
35489;BME280;21602;55.670;37.578;2023-02-03T01:38:46;98399.66;;;0.19;89.99
35489;BME280;21602;55.670;37.578;2023-02-03T01:41:14;98409.56;;;0.23;89.54
35489;BME280;21602;55.670;37.578;2023-02-03T01:43:43;98408.41;;;0.26;89.56
35489;BME280;21602;55.670;37.578;2023-02-03T01:46:24;98406.38;;;0.28;89.75
35489;BME280;21602;55.670;37.578;2023-02-03T01:48:52;98405.66;;;0.34;89.76
35489;BME280;21602;55.670;37.578;2023-02-03T01:51:19;98400.00;;;0.37;89.73
35489;BME280;21602;55.670;37.578;2023-02-03T01:53:47;98398.81;;;0.40;89.44
35489;BME280;21602;55.670;37.578;2023-02-03T01:56:13;98397.38;;;0.37;89.42
35489;BME280;21602;55.670;37.578;2023-02-03T01:58:40;98395.94;;;0.35;89.74
35489;BME280;21602;55.670;37.578;2023-02-03T02:01:06;98396.72;;;0.29;89.66
35489;BME280;21602;55.670;37.578;2023-02-03T02:03:58;98389.78;;;0.21;89.90
35489;BME280;21602;55.670;37.578;2023-02-03T02:06:24;98395.41;;;0.18;90.01
35489;BME280;21602;55.670;37.578;2023-02-03T02:08:52;98388.97;;;0.20;90.60
35489;BME280;21602;55.670;37.578;2023-02-03T02:11:19;98392.28;;;0.29;90.69
35489;BME280;21602;55.670;37.578;2023-02-03T02:13:50;98395.16;;;0.34;90.79
35489;BME280;21602;55.670;37.578;2023-02-03T02:28:07;98388.44;;;0.32;90.82
35489;BME280;21602;55.670;37.578;2023-02-03T02:30:56;98389.47;;;0.31;90.62
35489;BME280;21602;55.670;37.578;2023-02-03T02:33:42;98385.22;;;0.30;90.92
35489;BME280;21602;55.670;37.578;2023-02-03T02:41:36;98384.00;;;0.32;91.13
35489;BME280;21602;55.670;37.578;2023-02-03T02:44:24;98385.31;;;0.43;91.27
35489;BME280;21602;55.670;37.578;2023-02-03T02:46:57;98389.97;;;0.47;91.29
35489;BME280;21602;55.670;37.578;2023-02-03T02:49:34;98383.09;;;0.46;90.55
35489;BME280;21602;55.670;37.578;2023-02-03T02:52:04;98383.25;;;0.38;90.89
35489;BME280;21602;55.670;37.578;2023-02-03T02:54:36;98385.88;;;0.38;91.10
35489;BME280;21602;55.670;37.578;2023-02-03T02:57:05;98387.50;;;0.39;91.09
35489;BME280;21602;55.670;37.578;2023-02-03T02:59:34;98384.69;;;0.41;91.20
35489;BME280;21602;55.670;37.578;2023-02-03T03:01:59;98384.47;;;0.42;91.29
35489;BME280;21602;55.670;37.578;2023-02-03T03:04:29;98382.72;;;0.49;91.54
35489;BME280;21602;55.670;37.578;2023-02-03T03:07:00;98383.56;;;0.57;91.09
35489;BME280;21602;55.670;37.578;2023-02-03T03:10:03;98393.31;;;0.63;91.12
35489;BME280;21602;55.670;37.578;2023-02-03T03:12:28;98386.41;;;0.62;90.96
35489;BME280;21602;55.670;37.578;2023-02-03T03:15:20;98386.03;;;0.65;90.95
35489;BME280;21602;55.670;37.578;2023-02-03T03:17:53;98384.41;;;0.64;90.87
35489;BME280;21602;55.670;37.578;2023-02-03T03:20:23;98387.28;;;0.69;90.96
35489;BME280;21602;55.670;37.578;2023-02-03T03:23:03;98388.47;;;0.66;90.91
35489;BME280;21602;55.670;37.578;2023-02-03T03:25:43;98383.41;;;0.65;91.04
35489;BME280;21602;55.670;37.578;2023-02-03T03:28:15;98383.84;;;0.68;91.07
35489;BME280;21602;55.670;37.578;2023-02-03T03:30:45;98384.22;;;0.65;91.04
35489;BME280;21602;55.670;37.578;2023-02-03T03:33:11;98390.69;;;0.63;91.16
35489;BME280;21602;55.670;37.578;2023-02-03T03:35:44;98392.91;;;0.66;91.08
35489;BME280;21602;55.670;37.578;2023-02-03T03:38:23;98377.16;;;0.66;91.35
35489;BME280;21602;55.670;37.578;2023-02-03T03:41:19;98382.41;;;0.66;91.55
35489;BME280;21602;55.670;37.578;2023-02-03T03:43:49;98380.56;;;0.66;91.55
35489;BME280;21602;55.670;37.578;2023-02-03T03:46:24;98378.16;;;0.65;91.62
35489;BME280;21602;55.670;37.578;2023-02-03T03:48:55;98382.41;;;0.66;91.52
35489;BME280;21602;55.670;37.578;2023-02-03T03:51:33;98374.94;;;0.69;91.73
35489;BME280;21602;55.670;37.578;2023-02-03T03:54:03;98380.44;;;0.74;91.74
35489;BME280;21602;55.670;37.578;2023-02-03T03:56:41;98386.94;;;0.79;91.07
35489;BME280;21602;55.670;37.578;2023-02-03T03:59:10;98383.91;;;0.82;91.65
35489;BME280;21602;55.670;37.578;2023-02-03T04:01:39;98384.94;;;0.87;91.85
35489;BME280;21602;55.670;37.578;2023-02-03T04:04:09;98387.81;;;0.92;91.38
35489;BME280;21602;55.670;37.578;2023-02-03T04:06:39;98384.97;;;0.94;91.25
35489;BME280;21602;55.670;37.578;2023-02-03T04:09:05;98377.28;;;0.92;91.33
35489;BME280;21602;55.670;37.578;2023-02-03T04:11:31;98391.44;;;0.91;91.30
35489;BME280;21602;55.670;37.578;2023-02-03T04:14:15;98390.44;;;0.92;91.18
35489;BME280;21602;55.670;37.578;2023-02-03T04:16:43;98379.31;;;0.90;91.38
35489;BME280;21602;55.670;37.578;2023-02-03T04:19:09;98387.19;;;0.90;91.38
35489;BME280;21602;55.670;37.578;2023-02-03T04:21:34;98378.69;;;0.88;91.60
35489;BME280;21602;55.670;37.578;2023-02-03T04:24:00;98388.19;;;0.89;91.52
35489;BME280;21602;55.670;37.578;2023-02-03T04:26:26;98380.94;;;0.91;91.57
35489;BME280;21602;55.670;37.578;2023-02-03T04:28:52;98383.34;;;0.93;91.56
35489;BME280;21602;55.670;37.578;2023-02-03T04:31:18;98382.97;;;0.96;91.66
35489;BME280;21602;55.670;37.578;2023-02-03T04:33:44;98381.53;;;0.93;91.84
35489;BME280;21602;55.670;37.578;2023-02-03T04:36:22;98387.44;;;0.95;91.84
35489;BME280;21602;55.670;37.578;2023-02-03T04:38:48;98389.41;;;0.93;91.67
35489;BME280;21602;55.670;37.578;2023-02-03T04:41:15;98384.94;;;0.87;91.67
35489;BME280;21602;55.670;37.578;2023-02-03T04:43:41;98383.13;;;0.88;92.30
35489;BME280;21602;55.670;37.578;2023-02-03T04:46:06;98385.56;;;0.89;92.24
35489;BME280;21602;55.670;37.578;2023-02-03T04:48:32;98391.44;;;0.91;92.08
35489;BME280;21602;55.670;37.578;2023-02-03T04:51:02;98387.19;;;0.90;92.20
35489;BME280;21602;55.670;37.578;2023-02-03T04:53:30;98376.69;;;0.90;92.10
35489;BME280;21602;55.670;37.578;2023-02-03T04:55:56;98384.56;;;0.90;91.85
35489;BME280;21602;55.670;37.578;2023-02-03T04:58:22;98376.88;;;0.89;92.06
35489;BME280;21602;55.670;37.578;2023-02-03T05:00:48;98388.59;;;0.86;92.11
35489;BME280;21602;55.670;37.578;2023-02-03T05:03:13;98382.53;;;0.86;92.52
35489;BME280;21602;55.670;37.578;2023-02-03T05:05:39;98388.19;;;0.89;92.43
35489;BME280;21602;55.670;37.578;2023-02-03T05:08:08;98393.88;;;0.93;92.40
35489;BME280;21602;55.670;37.578;2023-02-03T05:10:34;98393.66;;;0.94;92.51
35489;BME280;21602;55.670;37.578;2023-02-03T05:12:59;98391.66;;;0.96;92.36
35489;BME280;21602;55.670;37.578;2023-02-03T05:15:34;98392.28;;;0.98;92.33
35489;BME280;21602;55.670;37.578;2023-02-03T05:18:00;98389.50;;;1.07;92.48
35489;BME280;21602;55.670;37.578;2023-02-03T05:20:26;98391.31;;;1.13;92.49
35489;BME280;21602;55.670;37.578;2023-02-03T05:22:52;98391.53;;;1.18;92.35
35489;BME280;21602;55.670;37.578;2023-02-03T05:25:18;98389.13;;;1.16;91.92
35489;BME280;21602;55.670;37.578;2023-02-03T05:27:44;98392.34;;;1.12;91.99
35489;BME280;21602;55.670;37.578;2023-02-03T05:30:10;98385.84;;;1.08;92.16
35489;BME280;21602;55.670;37.578;2023-02-03T05:32:36;98385.47;;;1.11;92.22
35489;BME280;21602;55.670;37.578;2023-02-03T05:35:02;98390.31;;;1.14;92.12
35489;BME280;21602;55.670;37.578;2023-02-03T05:37:29;98386.28;;;1.11;92.20
35489;BME280;21602;55.670;37.578;2023-02-03T05:39:54;98390.91;;;1.09;92.52
35489;BME280;21602;55.670;37.578;2023-02-03T05:42:48;98395.75;;;1.06;92.30
35489;BME280;21602;55.670;37.578;2023-02-03T05:45:14;98389.50;;;1.07;92.69
35489;BME280;21602;55.670;37.578;2023-02-03T05:47:40;98402.47;;;1.15;92.77
35489;BME280;21602;55.670;37.578;2023-02-03T05:50:05;98394.00;;;1.19;92.63
35489;BME280;21602;55.670;37.578;2023-02-03T05:52:32;98398.84;;;1.22;92.29
35489;BME280;21602;55.670;37.578;2023-02-03T05:54:57;98397.66;;;1.25;92.50
35489;BME280;21602;55.670;37.578;2023-02-03T05:57:23;98400.88;;;1.27;92.50
35489;BME280;21602;55.670;37.578;2023-02-03T05:59:49;98394.81;;;1.20;92.32
35489;BME280;21602;55.670;37.578;2023-02-03T06:02:15;98403.06;;;1.17;92.22
35489;BME280;21602;55.670;37.578;2023-02-03T06:04:40;98395.78;;;1.12;92.65
35489;BME280;21602;55.670;37.578;2023-02-03T06:07:06;98405.09;;;1.15;92.60
35489;BME280;21602;55.670;37.578;2023-02-03T06:09:32;98405.69;;;1.17;92.75
35489;BME280;21602;55.670;37.578;2023-02-03T06:11:59;98401.69;;;1.21;92.58
35489;BME280;21602;55.670;37.578;2023-02-03T06:14:24;98397.81;;;1.23;92.70
35489;BME280;21602;55.670;37.578;2023-02-03T06:16:50;98394.59;;;1.28;92.34
35489;BME280;21602;55.670;37.578;2023-02-03T06:19:16;98398.06;;;1.28;92.51
35489;BME280;21602;55.670;37.578;2023-02-03T06:21:41;98403.72;;;1.32;92.42
35489;BME280;21602;55.670;37.578;2023-02-03T06:24:08;98404.97;;;1.36;91.98
35489;BME280;21602;55.670;37.578;2023-02-03T06:26:34;98403.34;;;1.35;92.04
35489;BME280;21602;55.670;37.578;2023-02-03T06:29:00;98398.69;;;1.37;92.06
35489;BME280;21602;55.670;37.578;2023-02-03T06:31:26;98394.66;;;1.41;92.19
35489;BME280;21602;55.670;37.578;2023-02-03T06:33:52;98398.53;;;1.45;92.03
35489;BME280;21602;55.670;37.578;2023-02-03T06:36:17;98401.78;;;1.47;91.86
35489;BME280;21602;55.670;37.578;2023-02-03T06:38:43;98397.31;;;1.48;91.61
35489;BME280;21602;55.670;37.578;2023-02-03T06:41:09;98398.94;;;1.49;91.89
35489;BME280;21602;55.670;37.578;2023-02-03T06:43:35;98394.91;;;1.53;92.03
35489;BME280;21602;55.670;37.578;2023-02-03T06:46:01;98414.13;;;1.60;91.89
35489;BME280;21602;55.670;37.578;2023-02-03T06:48:27;98405.66;;;1.65;91.72
35489;BME280;21602;55.670;37.578;2023-02-03T06:50:53;98410.53;;;1.68;91.58
35489;BME280;21602;55.670;37.578;2023-02-03T06:53:20;98415.38;;;1.71;91.65
35489;BME280;21602;55.670;37.578;2023-02-03T06:55:46;98413.75;;;1.70;91.52
35489;BME280;21602;55.670;37.578;2023-02-03T06:58:12;98410.72;;;1.73;91.39
35489;BME280;21602;55.670;37.578;2023-02-03T07:00:38;98409.31;;;1.77;91.50
35489;BME280;21602;55.670;37.578;2023-02-03T07:03:04;98399.41;;;1.79;91.19
35489;BME280;21602;55.670;37.578;2023-02-03T07:05:30;98403.66;;;1.80;91.25
35489;BME280;21602;55.670;37.578;2023-02-03T07:07:55;98396.59;;;1.81;91.14
35489;BME280;21602;55.670;37.578;2023-02-03T07:10:23;98402.25;;;1.77;91.21
35489;BME280;21602;55.670;37.578;2023-02-03T07:12:49;98404.66;;;1.72;91.17
35489;BME280;21602;55.670;37.578;2023-02-03T07:15:16;98405.84;;;1.70;91.44
35489;BME280;21602;55.670;37.578;2023-02-03T07:17:42;98408.31;;;1.71;91.20
35489;BME280;21602;55.670;37.578;2023-02-03T07:20:08;98410.72;;;1.73;91.46
35489;BME280;21602;55.670;37.578;2023-02-03T07:22:35;98410.09;;;1.71;91.40
35489;BME280;21602;55.670;37.578;2023-02-03T07:25:01;98406.66;;;1.70;91.09
35489;BME280;21602;55.670;37.578;2023-02-03T07:27:27;98407.91;;;1.68;91.18
35489;BME280;21602;55.670;37.578;2023-02-03T07:29:54;98402.63;;;1.68;91.41
35489;BME280;21602;55.670;37.578;2023-02-03T07:32:19;98407.91;;;1.68;91.31
35489;BME280;21602;55.670;37.578;2023-02-03T07:34:45;98402.84;;;1.73;91.53
35489;BME280;21602;55.670;37.578;2023-02-03T07:37:11;98404.06;;;1.77;91.10
35489;BME280;21602;55.670;37.578;2023-02-03T07:39:37;98406.69;;;1.77;91.15
35489;BME280;21602;55.670;37.578;2023-02-03T07:42:03;98410.13;;;1.84;91.17
35489;BME280;21602;55.670;37.578;2023-02-03T07:44:32;98405.06;;;1.89;90.92
35489;BME280;21602;55.670;37.578;2023-02-03T07:46:58;98398.19;;;1.88;90.53
35489;BME280;21602;55.670;37.578;2023-02-03T07:49:24;98397.41;;;1.81;90.66
35489;BME280;21602;55.670;37.578;2023-02-03T07:51:50;98396.56;;;1.74;90.58
35489;BME280;21602;55.670;37.578;2023-02-03T07:54:16;98408.91;;;1.73;90.70
35489;BME280;21602;55.670;37.578;2023-02-03T07:56:45;98401.41;;;1.70;90.74
35489;BME280;21602;55.670;37.578;2023-02-03T07:59:10;98400.81;;;1.75;90.82
35489;BME280;21602;55.670;37.578;2023-02-03T08:01:36;98397.78;;;1.78;90.79
35489;BME280;21602;55.670;37.578;2023-02-03T08:04:02;98398.38;;;1.80;90.58
35489;BME280;21602;55.670;37.578;2023-02-03T08:06:30;98393.31;;;1.85;90.56
35489;BME280;21602;55.670;37.578;2023-02-03T08:08:56;98397.00;;;1.97;90.66
35489;BME280;21602;55.670;37.578;2023-02-03T08:11:21;98391.34;;;2.07;90.56
35489;BME280;21602;55.670;37.578;2023-02-03T08:13:47;98397.81;;;2.11;90.32
35489;BME280;21602;55.670;37.578;2023-02-03T08:16:13;98386.09;;;2.14;90.19
35489;BME280;21602;55.670;37.578;2023-02-03T08:18:39;98389.72;;;2.19;89.99
35489;BME280;21602;55.670;37.578;2023-02-03T08:21:05;98389.13;;;2.24;89.92
35489;BME280;21602;55.670;37.578;2023-02-03T08:23:30;98390.72;;;2.25;89.56
35489;BME280;21602;55.670;37.578;2023-02-03T08:25:56;98388.91;;;2.25;89.55
35489;BME280;21602;55.670;37.578;2023-02-03T08:28:22;98393.38;;;2.25;89.50
35489;BME280;21602;55.670;37.578;2023-02-03T08:30:48;98384.44;;;2.26;89.72
35489;BME280;21602;55.670;37.578;2023-02-03T08:33:14;98384.44;;;2.33;89.78
35489;BME280;21602;55.670;37.578;2023-02-03T08:35:44;98386.06;;;2.40;89.50
35489;BME280;21602;55.670;37.578;2023-02-03T08:38:11;98376.75;;;2.38;89.19
35489;BME280;21602;55.670;37.578;2023-02-03T08:40:37;98382.41;;;2.41;89.11
35489;BME280;21602;55.670;37.578;2023-02-03T08:43:03;98385.03;;;2.41;89.28
35489;BME280;21602;55.670;37.578;2023-02-03T08:45:29;98382.22;;;2.43;89.14
35489;BME280;21602;55.670;37.578;2023-02-03T08:47:54;98385.03;;;2.41;89.08
35489;BME280;21602;55.670;37.578;2023-02-03T08:50:20;98374.94;;;2.38;89.13
35489;BME280;21602;55.670;37.578;2023-02-03T08:52:46;98384.22;;;2.41;89.34
35489;BME280;21602;55.670;37.578;2023-02-03T08:55:12;98382.59;;;2.46;89.26
35489;BME280;21602;55.670;37.578;2023-02-03T08:57:38;98387.25;;;2.51;89.23
35489;BME280;21602;55.670;37.578;2023-02-03T09:00:08;98384.22;;;2.54;88.75
35489;BME280;21602;55.670;37.578;2023-02-03T09:02:36;98388.06;;;2.51;88.70
35489;BME280;21602;55.670;37.578;2023-02-03T09:05:02;98389.69;;;2.52;88.84
35489;BME280;21602;55.670;37.578;2023-02-03T09:07:28;98383.22;;;2.42;88.70
35489;BME280;21602;55.670;37.578;2023-02-03T09:09:54;98383.41;;;2.40;88.70
35489;BME280;21602;55.670;37.578;2023-02-03T09:12:20;98382.03;;;2.38;88.82
35489;BME280;21602;55.670;37.578;2023-02-03T09:14:46;98384.44;;;2.39;89.03
35489;BME280;21602;55.670;37.578;2023-02-03T09:17:11;98377.94;;;2.42;89.10
35489;BME280;21602;55.670;37.578;2023-02-03T09:19:37;98382.81;;;2.45;88.90
35489;BME280;21602;55.670;37.578;2023-02-03T09:22:04;98373.88;;;2.46;89.18
35489;BME280;21602;55.670;37.578;2023-02-03T09:24:31;98381.97;;;2.51;89.16
35489;BME280;21602;55.670;37.578;2023-02-03T09:26:56;98377.50;;;2.51;88.91
35489;BME280;21602;55.670;37.578;2023-02-03T09:29:22;98382.38;;;2.54;89.33
35489;BME280;21602;55.670;37.578;2023-02-03T09:31:49;98377.75;;;2.56;89.00
35489;BME280;21602;55.670;37.578;2023-02-03T09:34:18;98373.06;;;2.59;88.94
35489;BME280;21602;55.670;37.578;2023-02-03T09:36:45;98371.41;;;2.64;89.19
35489;BME280;21602;55.670;37.578;2023-02-03T09:39:11;98375.88;;;2.77;88.95
35489;BME280;21602;55.670;37.578;2023-02-03T09:44:59;98373.56;;;2.94;88.33
35489;BME280;21602;55.670;37.578;2023-02-03T09:47:40;98366.91;;;2.91;88.05
35489;BME280;21602;55.670;37.578;2023-02-03T09:50:29;98373.97;;;2.97;87.84
35489;BME280;21602;55.670;37.578;2023-02-03T09:52:57;98374.19;;;2.96;87.43
35489;BME280;21602;55.670;37.578;2023-02-03T09:58:12;98377.66;;;2.90;87.32
35489;BME280;21602;55.670;37.578;2023-02-03T10:00:43;98369.53;;;2.85;87.22
35489;BME280;21602;55.670;37.578;2023-02-03T10:09:04;98381.56;;;2.67;87.22
35489;BME280;21602;55.670;37.578;2023-02-03T10:17:35;98373.63;;;2.74;87.31
35489;BME280;21602;55.670;37.578;2023-02-03T10:22:39;98370.56;;;2.90;87.08
35489;BME280;21602;55.670;37.578;2023-02-03T10:27:40;98372.34;;;2.96;86.69
35489;BME280;21602;55.670;37.578;2023-02-03T10:32:44;98369.09;;;3.01;85.99
35489;BME280;21602;55.670;37.578;2023-02-03T10:35:14;98362.84;;;2.95;86.12
35489;BME280;21602;55.670;37.578;2023-02-03T10:37:46;98357.97;;;2.92;86.25
35489;BME280;21602;55.670;37.578;2023-02-03T10:40:14;98357.56;;;2.95;86.33
35489;BME280;21602;55.670;37.578;2023-02-03T10:42:45;98360.38;;;2.94;86.14
35489;BME280;21602;55.670;37.578;2023-02-03T10:45:35;98357.97;;;2.92;86.53
35489;BME280;21602;55.670;37.578;2023-02-03T10:48:02;98353.69;;;2.98;86.28
35489;BME280;21602;55.670;37.578;2023-02-03T10:50:29;98362.38;;;3.05;85.98
35489;BME280;21602;55.670;37.578;2023-02-03T10:55:43;98356.50;;;3.03;85.70
35489;BME280;21602;55.670;37.578;2023-02-03T10:58:25;98360.38;;;3.00;85.41
35489;BME280;21602;55.670;37.578;2023-02-03T11:00:57;98355.91;;;3.01;85.48
35489;BME280;21602;55.670;37.578;2023-02-03T11:03:29;98349.38;;;3.03;85.35
35489;BME280;21602;55.670;37.578;2023-02-03T11:06:12;98350.59;;;3.07;85.20
35489;BME280;21602;55.670;37.578;2023-02-03T11:08:43;98346.94;;;3.08;85.06
35489;BME280;21602;55.670;37.578;2023-02-03T11:11:28;98353.44;;;3.06;84.56
35489;BME280;21602;55.670;37.578;2023-02-03T11:16:31;98343.31;;;3.10;84.62
35489;BME280;21602;55.670;37.578;2023-02-03T11:26:44;98340.81;;;3.21;83.61
35489;BME280;21602;55.670;37.578;2023-02-03T11:29:15;98336.78;;;3.19;83.57
35489;BME280;21602;55.670;37.578;2023-02-03T11:31:46;98343.66;;;3.13;83.64
35489;BME280;21602;55.670;37.578;2023-02-03T11:34:20;98343.47;;;3.15;83.45
35489;BME280;21602;55.670;37.578;2023-02-03T11:36:48;98337.13;;;3.29;83.33
35489;BME280;21602;55.670;37.578;2023-02-03T11:41:49;98334.31;;;3.55;83.03
35489;BME280;21602;55.670;37.578;2023-02-03T11:44:22;98332.63;;;3.68;82.68
35489;BME280;21602;55.670;37.578;2023-02-03T11:46:52;98338.44;;;3.76;81.74
35489;BME280;21602;55.670;37.578;2023-02-03T11:49:44;98334.19;;;3.75;81.63
35489;BME280;21602;55.670;37.578;2023-02-03T11:55:11;98332.84;;;3.66;81.58
35489;BME280;21602;55.670;37.578;2023-02-03T11:57:54;98336.47;;;3.65;81.35
35489;BME280;21602;55.670;37.578;2023-02-03T12:03:21;98330.78;;;3.68;81.05
35489;BME280;21602;55.670;37.578;2023-02-03T12:06:14;98327.72;;;3.71;81.25
35489;BME280;21602;55.670;37.578;2023-02-03T12:14:23;98327.97;;;3.63;80.53
35489;BME280;21602;55.670;37.578;2023-02-03T12:19:21;98320.13;;;3.56;80.51
35489;BME280;21602;55.670;37.578;2023-02-03T12:27:31;98321.63;;;3.39;79.84
35489;BME280;21602;55.670;37.578;2023-02-03T12:30:26;98322.84;;;3.37;80.25
35489;BME280;21602;55.670;37.578;2023-02-03T12:32:55;98322.84;;;3.43;80.23
35489;BME280;21602;55.670;37.578;2023-02-03T12:35:32;98317.09;;;3.46;79.63
35489;BME280;21602;55.670;37.578;2023-02-03T12:38:08;98320.19;;;3.43;79.74
35489;BME280;21602;55.670;37.578;2023-02-03T12:40:47;98321.69;;;3.32;79.36
35489;BME280;21602;55.670;37.578;2023-02-03T12:43:34;98322.09;;;3.29;79.35
35489;BME280;21602;55.670;37.578;2023-02-03T12:46:23;98323.72;;;3.30;79.64
35489;BME280;21602;55.670;37.578;2023-02-03T12:49:04;98322.31;;;3.28;79.69
35489;BME280;21602;55.670;37.578;2023-02-03T12:52:22;98329.41;;;3.27;79.16
35489;BME280;21602;55.670;37.578;2023-02-03T12:54:45;98326.56;;;3.29;79.33
35489;BME280;21602;55.670;37.578;2023-02-03T12:57:21;98323.75;;;3.24;79.45
35489;BME280;21602;55.670;37.578;2023-02-03T13:08:36;98327.38;;;3.23;79.56
35489;BME280;21602;55.670;37.578;2023-02-03T13:13:47;98316.09;;;3.16;79.84
35489;BME280;21602;55.670;37.578;2023-02-03T13:16:16;98321.34;;;3.16;79.97
35489;BME280;21602;55.670;37.578;2023-02-03T13:18:49;98318.31;;;3.19;80.03
35489;BME280;21602;55.670;37.578;2023-02-03T13:21:16;98326.22;;;3.19;79.74
35489;BME280;21602;55.670;37.578;2023-02-03T13:23:42;98318.94;;;3.14;79.97
35489;BME280;21602;55.670;37.578;2023-02-03T13:40:30;98321.22;;;2.97;81.15
35489;BME280;21602;55.670;37.578;2023-02-03T13:43:00;98330.00;;;2.91;81.63
35489;BME280;21602;55.670;37.578;2023-02-03T13:50:42;98322.78;;;2.67;83.43
35489;BME280;21602;55.670;37.578;2023-02-03T13:53:22;98324.78;;;2.65;84.20
35489;BME280;21602;55.670;37.578;2023-02-03T13:58:41;98327.88;;;2.55;84.92
35489;BME280;21602;55.670;37.578;2023-02-03T14:01:37;98332.31;;;2.54;85.53
35489;BME280;21602;55.670;37.578;2023-02-03T14:04:05;98328.31;;;2.39;86.21
35489;BME280;21602;55.670;37.578;2023-02-03T14:09:01;98325.28;;;2.22;87.27
35489;BME280;21602;55.670;37.578;2023-02-03T14:16:38;98330.34;;;2.30;88.09
35489;BME280;21602;55.670;37.578;2023-02-03T14:19:11;98338.88;;;2.25;88.51
35489;BME280;21602;55.670;37.578;2023-02-03T14:22:04;98333.81;;;2.17;88.78
35489;BME280;21602;55.670;37.578;2023-02-03T14:24:40;98329.78;;;2.15;88.86
35489;BME280;21602;55.670;37.578;2023-02-03T14:27:19;98333.59;;;2.12;89.27
35489;BME280;21602;55.670;37.578;2023-02-03T14:30:03;98325.94;;;2.11;89.28
35489;BME280;21602;55.670;37.578;2023-02-03T14:32:49;98323.09;;;2.05;90.09
35489;BME280;21602;55.670;37.578;2023-02-03T14:35:21;98323.09;;;2.05;89.75
35489;BME280;21602;55.670;37.578;2023-02-03T14:37:54;98321.47;;;2.04;89.83
35489;BME280;21602;55.670;37.578;2023-02-03T15:00:01;98323.09;;;1.92;91.50
35489;BME280;21602;55.670;37.578;2023-02-03T15:02:32;98327.34;;;1.87;91.42
35489;BME280;21602;55.670;37.578;2023-02-03T15:10:24;98329.97;;;1.87;92.14
35489;BME280;21602;55.670;37.578;2023-02-03T15:12:55;98333.44;;;1.87;92.19
35489;BME280;21602;55.670;37.578;2023-02-03T15:15:28;98329.34;;;1.85;91.76
35489;BME280;21602;55.670;37.578;2023-02-03T15:17:59;98335.03;;;1.75;92.62
35489;BME280;21602;55.670;37.578;2023-02-03T15:20:35;98334.22;;;1.74;92.20
35489;BME280;21602;55.670;37.578;2023-02-03T15:23:39;98324.13;;;1.71;92.66
35489;BME280;21602;55.670;37.578;2023-02-03T15:26:19;98326.94;;;1.70;93.04
35489;BME280;21602;55.670;37.578;2023-02-03T15:29:03;98332.81;;;1.72;93.06
35489;BME280;21602;55.670;37.578;2023-02-03T15:31:39;98337.06;;;1.73;92.94
35489;BME280;21602;55.670;37.578;2023-02-03T15:36:46;98327.13;;;1.68;93.67
35489;BME280;21602;55.670;37.578;2023-02-03T15:41:50;98337.88;;;1.67;93.41
35489;BME280;21602;55.670;37.578;2023-02-03T15:44:33;98337.25;;;1.65;93.56